This is the latest recevied weather packets stored in our database for station/object DL3MEB-6. If no packets are shown the sender has not sent any weather packets the latest 1 day(s).
| Time | Temp. | Humidity | Pressure | Rain* | Wind** | Luminosity | Snow |
|---|---|---|---|---|---|---|---|
| 1778080656 | 12.78° C | 86% | 1005.2 hPa | 2.79 mm | - | - | - |
| 1778079930 | 13.33° C | 83% | 1005.2 hPa | 4.57 mm | - | - | - |
| 1778079030 | 15.56° C | 73% | 1004.8 hPa | 8.13 mm | - | - | - |
| 1778078130 | 18.89° C | 64% | 1003.5 hPa | 0 mm | - | - | - |
| 1778075419 | 21.11° C | 49% | 1002.5 hPa | 0 mm | - | - | - |
| 1778070884 | 20.56° C | 49% | 1003.1 hPa | 0 mm | - | - | - |
| 1778069071 | 20° C | 52% | 1003.6 hPa | 0 mm | - | - | - |
| 1778067265 | 19.44° C | 50% | 1004 hPa | 0 mm | - | - | - |
| 1778067260 | 19.44° C | 50% | 1004 hPa | 0 mm | - | - | - |
| 1778066360 | 19.44° C | 51% | 1004.1 hPa | 0 mm | - | - | - |
| 1778065459 | 19.44° C | 50% | 1004.1 hPa | 0 mm | - | - | - |
| 1778063642 | 18.89° C | 55% | 1004.8 hPa | 0 mm | - | - | - |
| 1778062737 | 18.89° C | 54% | 1004.8 hPa | 0 mm | - | - | - |
| 1778061838 | 18.89° C | 55% | 1005.1 hPa | 0 mm | - | - | - |
| 1778060931 | 18.33° C | 58% | 1004.9 hPa | 0 mm | - | - | - |
| 1778060020 | 17.78° C | 58% | 1005 hPa | 0 mm | - | - | - |
| 1778058205 | 17.22° C | 59% | 1005 hPa | 0 mm | - | - | - |
| 1778057305 | 17.22° C | 60% | 1005.2 hPa | 0 mm | - | - | - |
| 1778056399 | 16.67° C | 61% | 1005.3 hPa | 0 mm | - | - | - |
| 1778055496 | 16.11° C | 62% | 1005.4 hPa | 0 mm | - | - | - |
| 1778054588 | 15.56° C | 62% | 1005.5 hPa | 0 mm | - | - | - |
| 1778053686 | 15° C | 67% | 1005.7 hPa | 0 mm | - | - | - |
| 1778052785 | 14.44° C | 69% | 1006 hPa | 0 mm | - | - | - |
| 1778051879 | 13.89° C | 74% | 1006 hPa | 0 mm | - | - | - |
| 1778049158 | 11.67° C | 93% | 1006.2 hPa | 0 mm | - | - | - |
* Rain latest hour (hover to see other rain measurements)
** Current wind speed in m/s (hover to see current wind gust speed)